createdAt,value
2023-03-06T00:01:36.894Z,6.00
2023-03-06T00:04:04.170Z,8.07
2023-03-06T00:06:31.473Z,9.80
2023-03-06T00:08:58.721Z,9.50
2023-03-06T00:11:26.136Z,9.57
2023-03-06T00:13:53.601Z,10.52
2023-03-06T00:16:20.854Z,7.97
2023-03-06T00:18:48.126Z,11.18
2023-03-06T00:21:15.394Z,11.70
2023-03-06T00:23:42.610Z,12.27
2023-03-06T00:26:10.703Z,8.52
2023-03-06T00:28:37.966Z,13.68
2023-03-06T00:31:05.416Z,10.85
2023-03-06T00:33:32.841Z,13.50
2023-03-06T00:36:00.124Z,11.10
2023-03-06T00:38:28.666Z,8.32
2023-03-06T00:40:55.835Z,12.02
2023-03-06T00:43:23.054Z,12.32
2023-03-06T00:45:50.353Z,8.43
2023-03-06T00:48:17.652Z,11.68
2023-03-06T00:50:44.915Z,9.10
2023-03-06T00:53:13.388Z,11.10
2023-03-06T00:55:40.690Z,8.75
2023-03-06T00:58:07.954Z,5.60
2023-03-06T01:00:35.305Z,6.75
2023-03-06T01:03:02.547Z,8.43
2023-03-06T01:05:36.685Z,12.20
2023-03-06T01:08:06.449Z,10.38
2023-03-06T01:10:33.742Z,7.50
2023-03-06T01:13:01.051Z,8.30
2023-03-06T01:15:28.255Z,13.43
2023-03-06T01:17:55.549Z,7.32
2023-03-06T01:20:22.852Z,9.85
2023-03-06T01:22:50.195Z,9.02
2023-03-06T01:25:17.487Z,8.95
2023-03-06T01:27:44.845Z,8.27
2023-03-06T01:30:12.593Z,8.23
2023-03-06T01:32:39.975Z,9.52
2023-03-06T01:35:07.644Z,9.88
2023-03-06T01:37:36.601Z,7.65
2023-03-06T01:40:04.416Z,8.15
2023-03-06T01:42:32.245Z,10.65
2023-03-06T01:45:00.321Z,14.70
2023-03-06T01:47:28.014Z,16.75
2023-03-06T01:49:55.831Z,13.40
2023-03-06T01:52:24.756Z,14.80
2023-03-06T01:54:54.768Z,15.02
2023-03-06T01:57:24.152Z,12.40
2023-03-06T01:59:54.623Z,16.38
2023-03-06T02:02:22.988Z,13.73
2023-03-06T02:04:50.309Z,11.95
2023-03-06T02:07:20.332Z,14.35
2023-03-06T02:09:48.065Z,16.90
2023-03-06T02:12:19.568Z,12.85
2023-03-06T02:14:47.603Z,11.98
2023-03-06T02:17:15.971Z,12.98
2023-03-06T02:19:43.389Z,13.05
2023-03-06T02:22:10.996Z,11.82
2023-03-06T02:24:50.694Z,8.50
2023-03-06T02:27:18.298Z,10.32
2023-03-06T02:29:45.662Z,15.43
2023-03-06T02:32:13.258Z,14.75
2023-03-06T02:34:40.506Z,16.80
2023-03-06T02:37:11.661Z,17.75
2023-03-06T02:39:41.279Z,18.15
2023-03-06T02:42:08.750Z,11.48
2023-03-06T02:44:36.755Z,17.92
2023-03-06T02:47:04.093Z,9.82
2023-03-06T02:49:31.359Z,12.82
2023-03-06T02:51:58.890Z,10.15
2023-03-06T02:54:26.186Z,16.05
2023-03-06T02:56:53.442Z,17.38
2023-03-06T02:59:20.668Z,13.02
2023-03-06T03:01:48.071Z,16.33
2023-03-06T03:04:15.425Z,14.98
2023-03-06T03:06:42.838Z,16.92
2023-03-06T03:09:10.094Z,18.65
2023-03-06T03:11:37.466Z,16.85
2023-03-06T03:14:04.737Z,18.20
2023-03-06T03:16:32.085Z,16.13
2023-03-06T03:18:59.357Z,14.38
2023-03-06T03:21:26.659Z,16.63
2023-03-06T03:23:53.932Z,12.35
2023-03-06T03:26:21.858Z,15.10
2023-03-06T03:28:49.517Z,16.30
2023-03-06T03:31:16.842Z,15.63
2023-03-06T03:33:44.037Z,16.17
2023-03-06T03:36:11.493Z,14.15
2023-03-06T03:38:38.918Z,14.65
2023-03-06T03:41:06.345Z,12.77
2023-03-06T03:43:33.608Z,15.30
2023-03-06T03:46:01.120Z,13.18
2023-03-06T03:48:28.443Z,16.75
2023-03-06T03:50:55.730Z,17.52
2023-03-06T03:53:23.374Z,14.40
2023-03-06T03:55:50.648Z,15.57
2023-03-06T03:58:17.861Z,19.30
2023-03-06T04:00:45.770Z,15.73
2023-03-06T04:03:13.027Z,16.63
2023-03-06T04:05:40.350Z,23.25
2023-03-06T04:08:07.676Z,18.42
2023-03-06T04:10:35.114Z,32.45
2023-03-06T04:13:02.887Z,24.73
2023-03-06T04:15:30.325Z,30.95
2023-03-06T04:17:57.588Z,30.73
2023-03-06T04:20:26.222Z,23.05
2023-03-06T04:22:53.451Z,23.50
2023-03-06T04:25:20.854Z,27.75
2023-03-06T04:27:48.185Z,22.08
2023-03-06T04:30:15.578Z,29.73
2023-03-06T04:32:42.961Z,21.42
2023-03-06T04:35:10.355Z,20.20
2023-03-06T04:37:37.687Z,26.48
2023-03-06T04:40:05.246Z,25.75
2023-03-06T04:42:33.071Z,24.85
2023-03-06T04:45:00.424Z,21.25
2023-03-06T04:47:27.753Z,22.77
2023-03-06T04:49:55.086Z,23.52
2023-03-06T04:52:23.713Z,24.50
2023-03-06T04:54:51.068Z,24.00
2023-03-06T04:57:19.814Z,24.55
2023-03-06T04:59:47.320Z,28.02
2023-03-06T05:02:16.175Z,23.88
2023-03-06T05:04:43.921Z,28.95
2023-03-06T05:07:13.958Z,27.52
2023-03-06T05:09:41.457Z,25.88
2023-03-06T05:12:08.922Z,24.90
2023-03-06T05:14:36.405Z,25.77
2023-03-06T05:17:04.251Z,24.55
2023-03-06T05:19:31.750Z,25.23
2023-03-06T05:21:59.378Z,25.67
2023-03-06T05:24:26.707Z,22.63
2023-03-06T05:26:54.399Z,26.20
2023-03-06T05:29:22.101Z,24.23
2023-03-06T05:31:51.009Z,24.05
2023-03-06T05:34:18.568Z,24.27
2023-03-06T05:36:47.541Z,27.15
2023-03-06T05:39:16.462Z,23.00
2023-03-06T05:41:43.975Z,25.88
2023-03-06T05:44:11.203Z,27.10
2023-03-06T05:46:40.157Z,24.05
2023-03-06T05:49:07.412Z,24.42
2023-03-06T05:51:34.726Z,28.38
2023-03-06T05:54:01.981Z,25.58
2023-03-06T05:56:29.302Z,24.42
2023-03-06T05:58:56.604Z,25.55
2023-03-06T06:01:25.448Z,22.05
2023-03-06T06:03:53.029Z,31.35
2023-03-06T06:06:20.329Z,20.95
2023-03-06T06:08:47.522Z,25.23
2023-03-06T06:11:15.213Z,24.35
2023-03-06T06:13:42.582Z,24.73
2023-03-06T06:16:11.703Z,24.48
2023-03-06T06:18:41.133Z,22.65
2023-03-06T06:21:09.469Z,25.50
2023-03-06T06:23:36.936Z,21.98
2023-03-06T06:26:05.847Z,24.83
2023-03-06T06:28:33.528Z,20.02
2023-03-06T06:31:01.086Z,21.45
2023-03-06T06:33:28.377Z,22.08
2023-03-06T06:35:55.587Z,24.65
2023-03-06T06:38:22.845Z,25.23
2023-03-06T06:41:26.905Z,34.08
2023-03-06T06:43:37.304Z,25.67
2023-03-06T06:46:26.235Z,25.90
2023-03-06T06:49:07.656Z,30.10
2023-03-06T06:54:35.428Z,27.70
2023-03-06T06:57:09.236Z,21.65
2023-03-06T06:59:37.205Z,27.30
2023-03-06T07:02:04.642Z,24.52
2023-03-06T07:04:31.981Z,24.27
2023-03-06T07:06:59.501Z,28.42
2023-03-06T07:09:45.054Z,29.35
2023-03-06T07:12:29.391Z,22.55
2023-03-06T07:14:56.923Z,35.65
2023-03-06T07:17:35.538Z,22.73
2023-03-06T07:20:10.848Z,26.33
2023-03-06T07:22:50.275Z,23.92
2023-03-06T07:25:31.730Z,20.35
2023-03-06T07:28:00.375Z,25.65
2023-03-06T07:30:31.658Z,19.80
2023-03-06T07:33:25.538Z,23.83
2023-03-06T07:38:38.490Z,24.97
2023-03-06T07:41:22.383Z,24.20
2023-03-06T07:43:53.899Z,27.95
2023-03-06T07:49:13.492Z,29.98
2023-03-06T07:51:54.765Z,32.45
2023-03-06T07:54:28.659Z,29.33
2023-03-06T07:56:56.645Z,31.20
2023-03-06T07:59:29.843Z,31.67
2023-03-06T08:04:38.332Z,25.75
2023-03-06T08:07:06.417Z,26.23
2023-03-06T08:09:37.577Z,27.38
2023-03-06T08:12:04.898Z,27.65
2023-03-06T08:14:45.920Z,35.53
2023-03-06T08:17:13.350Z,34.97
2023-03-06T08:22:16.520Z,32.90
2023-03-06T08:24:43.966Z,31.55
2023-03-06T08:27:11.507Z,36.08
2023-03-06T08:29:38.871Z,39.88
2023-03-06T08:32:06.824Z,41.13
2023-03-06T08:34:36.161Z,37.17
2023-03-06T08:39:45.996Z,41.08
2023-03-06T08:42:22.023Z,41.10
2023-03-06T08:44:53.092Z,40.35
2023-03-06T08:47:25.788Z,42.45
2023-03-06T08:50:00.782Z,38.78
2023-03-06T08:52:28.642Z,41.38
2023-03-06T08:54:56.337Z,41.75
2023-03-06T08:57:24.141Z,40.20
2023-03-06T08:59:52.801Z,42.17
2023-03-06T09:02:23.349Z,43.72
2023-03-06T09:04:53.776Z,48.35
2023-03-06T09:07:21.196Z,38.90
2023-03-06T09:09:48.593Z,37.60
2023-03-06T09:12:15.806Z,49.65
2023-03-06T09:14:43.093Z,39.67
2023-03-06T09:17:10.342Z,45.28
2023-03-06T09:19:38.378Z,38.88
2023-03-06T09:22:05.590Z,36.15
2023-03-06T09:24:36.337Z,46.60
2023-03-06T09:29:44.845Z,37.30
2023-03-06T09:32:12.277Z,36.08
2023-03-06T09:34:39.572Z,38.38
2023-03-06T09:37:08.035Z,33.83
2023-03-06T09:39:35.783Z,33.50
2023-03-06T09:42:03.194Z,37.15
2023-03-06T09:44:31.866Z,40.20
2023-03-06T09:47:11.255Z,37.05
2023-03-06T09:49:57.579Z,34.55
2023-03-06T09:52:40.510Z,36.13
2023-03-06T09:55:11.564Z,35.03
2023-03-06T09:57:42.312Z,39.83
2023-03-06T10:00:39.187Z,29.95
2023-03-06T10:03:06.453Z,32.88
2023-03-06T10:05:40.869Z,33.20
2023-03-06T10:08:30.502Z,33.75
2023-03-06T10:11:45.353Z,29.52
2023-03-06T10:14:22.047Z,36.33
2023-03-06T10:16:56.260Z,34.75
2023-03-06T10:19:46.684Z,27.63
2023-03-06T10:22:38.201Z,28.17
2023-03-06T10:25:28.329Z,23.23
2023-03-06T10:28:26.486Z,31.02
2023-03-06T10:31:29.024Z,28.40
2023-03-06T10:49:23.473Z,33.45
2023-03-06T10:51:56.666Z,26.75
2023-03-06T10:56:51.122Z,19.75
2023-03-06T10:59:28.231Z,16.67
2023-03-06T11:02:04.495Z,18.88
2023-03-06T11:04:35.728Z,19.98
2023-03-06T11:07:21.305Z,19.45
2023-03-06T11:09:57.902Z,17.77
2023-03-06T11:15:40.901Z,16.10
2023-03-06T11:18:11.971Z,13.77
2023-03-06T11:20:52.622Z,16.95
2023-03-06T11:23:49.206Z,13.82
2023-03-06T11:26:36.573Z,14.27
2023-03-06T11:29:17.584Z,15.55
2023-03-06T11:31:57.535Z,15.35
2023-03-06T11:34:26.387Z,12.88
2023-03-06T11:37:02.631Z,11.13
2023-03-06T11:39:38.414Z,14.13
2023-03-06T11:42:27.030Z,12.02
2023-03-06T11:44:57.886Z,14.20
2023-03-06T11:47:54.581Z,10.05
2023-03-06T11:50:50.770Z,10.65
2023-03-06T11:53:23.462Z,10.73
2023-03-06T11:56:13.535Z,9.55
2023-03-06T11:58:57.840Z,7.35
2023-03-06T12:01:46.215Z,7.63
2023-03-06T12:04:17.062Z,6.45
2023-03-06T12:06:48.045Z,7.70
2023-03-06T12:09:20.429Z,7.20
2023-03-06T12:12:05.015Z,7.85
2023-03-06T12:14:56.169Z,4.00
2023-03-06T12:17:24.186Z,5.10
2023-03-06T12:19:54.584Z,4.03
2023-03-06T12:22:29.133Z,5.70
2023-03-06T12:28:35.460Z,3.88
2023-03-06T12:31:09.365Z,5.15
2023-03-06T12:33:48.958Z,4.32
2023-03-06T12:36:16.153Z,2.58
2023-03-06T12:38:53.145Z,2.15
2023-03-06T12:41:37.773Z,2.80
2023-03-06T12:44:04.963Z,3.78
2023-03-06T12:46:35.333Z,9.95
2023-03-06T12:49:23.175Z,5.00
2023-03-06T12:52:32.048Z,4.93
2023-03-06T13:11:30.343Z,3.75
2023-03-06T13:13:57.893Z,3.17
2023-03-06T13:16:32.696Z,3.00
2023-03-06T13:19:04.552Z,2.83
2023-03-06T13:21:44.369Z,3.83
2023-03-06T13:24:27.054Z,3.17
2023-03-06T13:26:55.734Z,4.78
2023-03-06T13:29:38.372Z,5.53
2023-03-06T13:32:07.683Z,3.83
2023-03-06T13:34:34.862Z,3.38
2023-03-06T13:37:14.378Z,3.28
2023-03-06T13:40:01.829Z,3.05
2023-03-06T13:42:29.008Z,3.20
2023-03-06T13:44:57.031Z,5.25
2023-03-06T13:47:55.741Z,2.80
2023-03-06T13:50:29.772Z,2.60
2023-03-06T13:53:00.661Z,4.82
2023-03-06T13:55:46.133Z,3.22
2023-03-06T13:58:13.559Z,3.40
2023-03-06T14:00:40.745Z,2.70
2023-03-06T14:03:47.766Z,2.85
2023-03-06T14:06:42.600Z,3.45
2023-03-06T14:09:32.601Z,4.60
2023-03-06T14:12:03.098Z,2.63
2023-03-06T14:14:35.556Z,2.60
2023-03-06T14:17:05.529Z,4.55
2023-03-06T14:20:23.493Z,2.47
2023-03-06T14:22:50.724Z,3.80
2023-03-06T14:25:21.405Z,3.00
2023-03-06T14:27:54.829Z,3.72
2023-03-06T14:30:25.216Z,6.13
2023-03-06T14:32:54.783Z,3.97
2023-03-06T14:35:26.819Z,4.40
2023-03-06T14:37:55.582Z,3.70
2023-03-06T14:40:33.982Z,4.97
2023-03-06T14:43:20.467Z,4.25
2023-03-06T14:45:51.589Z,5.03
2023-03-06T14:48:18.734Z,5.32
2023-03-06T14:50:50.562Z,5.55
2023-03-06T14:53:18.079Z,4.38
2023-03-06T14:55:50.420Z,4.22
2023-03-06T14:58:20.728Z,4.85
2023-03-06T15:00:50.877Z,5.28
2023-03-06T15:03:19.897Z,6.82
2023-03-06T15:05:47.548Z,4.53
2023-03-06T15:08:18.633Z,3.35
2023-03-06T15:10:55.609Z,3.53
2023-03-06T15:13:23.917Z,4.80
2023-03-06T15:15:57.273Z,5.53
2023-03-06T15:18:35.341Z,4.32
2023-03-06T15:21:10.354Z,3.97
2023-03-06T15:23:38.927Z,5.95
2023-03-06T15:26:29.549Z,4.57
2023-03-06T15:29:09.101Z,4.50
2023-03-06T15:31:41.096Z,4.40
2023-03-06T15:34:11.054Z,3.95
2023-03-06T15:36:42.895Z,3.47
2023-03-06T15:39:46.584Z,3.85
2023-03-06T15:44:40.912Z,6.13
2023-03-06T15:47:12.248Z,4.30
2023-03-06T15:49:39.948Z,3.83
2023-03-06T15:52:07.536Z,3.67
2023-03-06T15:54:35.074Z,3.97
2023-03-06T15:57:04.240Z,4.65
2023-03-06T15:59:34.948Z,5.03
2023-03-06T16:02:03.680Z,5.10
2023-03-06T16:04:40.239Z,5.38
2023-03-06T16:07:07.491Z,5.50
2023-03-06T16:09:54.933Z,5.10
2023-03-06T16:12:22.964Z,4.65
2023-03-06T16:14:50.260Z,3.80
2023-03-06T16:17:17.843Z,4.13
2023-03-06T16:19:45.390Z,3.45
2023-03-06T16:22:13.011Z,4.15
2023-03-06T16:24:40.191Z,5.95
2023-03-06T16:27:07.482Z,4.65
2023-03-06T16:29:35.601Z,4.60
2023-03-06T16:32:03.198Z,6.47
2023-03-06T16:34:30.445Z,5.40
2023-03-06T16:36:57.628Z,5.47
2023-03-06T16:39:25.142Z,4.15
2023-03-06T16:41:52.592Z,5.82
2023-03-06T16:44:20.710Z,5.53
2023-03-06T16:46:49.990Z,8.10
2023-03-06T16:49:18.699Z,5.85
2023-03-06T16:51:46.174Z,6.18
2023-03-06T16:54:13.913Z,4.85
2023-03-06T16:56:41.215Z,3.67
2023-03-06T16:59:08.606Z,3.40
2023-03-06T17:01:35.943Z,4.22
2023-03-06T17:04:03.587Z,4.45
2023-03-06T17:06:31.059Z,5.88
2023-03-06T17:08:59.765Z,5.80
2023-03-06T17:11:27.135Z,6.13
2023-03-06T17:13:55.444Z,6.60
2023-03-06T17:16:23.083Z,3.60
2023-03-06T17:18:50.655Z,4.75
2023-03-06T17:21:17.857Z,4.05
2023-03-06T17:23:45.413Z,5.00
2023-03-06T17:26:18.795Z,4.93
2023-03-06T17:28:46.874Z,4.80
2023-03-06T17:31:17.366Z,4.45
2023-03-06T17:33:44.713Z,6.13
2023-03-06T17:36:12.360Z,5.55
2023-03-06T17:38:39.586Z,6.30
2023-03-06T17:41:07.323Z,5.47
2023-03-06T17:43:34.562Z,5.85
2023-03-06T17:46:08.915Z,6.65
2023-03-06T17:48:36.323Z,5.65
2023-03-06T17:51:04.059Z,7.18
2023-03-06T17:53:31.245Z,6.78
2023-03-06T17:55:58.709Z,5.75
2023-03-06T17:58:26.241Z,6.28
2023-03-06T18:00:53.624Z,4.60
2023-03-06T18:03:20.801Z,8.00
2023-03-06T18:05:50.660Z,7.10
2023-03-06T18:08:17.771Z,7.15
2023-03-06T18:10:44.936Z,8.50
2023-03-06T18:13:12.184Z,6.72
2023-03-06T18:15:40.191Z,7.82
2023-03-06T18:18:07.843Z,8.95
2023-03-06T18:20:35.251Z,9.02
2023-03-06T18:23:03.854Z,10.23
2023-03-06T18:25:34.197Z,12.55
2023-03-06T18:28:01.567Z,11.73
2023-03-06T18:30:28.811Z,15.38
2023-03-06T18:32:56.026Z,10.95
2023-03-06T18:35:23.264Z,14.55
2023-03-06T18:37:50.474Z,7.78
2023-03-06T18:40:17.664Z,10.32
2023-03-06T18:42:44.841Z,6.93
2023-03-06T18:45:12.900Z,9.95
2023-03-06T18:47:41.652Z,14.07
2023-03-06T18:50:09.155Z,11.70
2023-03-06T18:52:36.384Z,10.60
2023-03-06T18:55:03.622Z,10.88
2023-03-06T18:57:30.791Z,11.73
2023-03-06T18:59:57.953Z,12.90
2023-03-06T19:02:26.184Z,11.95
2023-03-06T19:04:53.326Z,12.32
2023-03-06T19:07:20.511Z,14.75
2023-03-06T19:09:49.227Z,15.52
2023-03-06T19:12:17.437Z,14.48
2023-03-06T19:14:44.947Z,12.30
2023-03-06T19:17:12.452Z,12.80
2023-03-06T19:19:39.739Z,11.10
2023-03-06T19:22:06.888Z,9.63
2023-03-06T19:24:34.277Z,11.77
2023-03-06T19:27:01.616Z,13.13
2023-03-06T19:29:28.830Z,13.77
2023-03-06T19:31:57.419Z,11.32
2023-03-06T19:34:24.699Z,11.40
2023-03-06T19:36:51.967Z,11.23
2023-03-06T19:39:19.289Z,11.00
2023-03-06T19:41:47.676Z,14.10
2023-03-06T19:44:16.310Z,15.00
2023-03-06T19:46:43.771Z,14.95
2023-03-06T19:49:17.004Z,15.98
2023-03-06T19:54:15.051Z,16.83
2023-03-06T19:56:42.362Z,13.98
2023-03-06T19:59:09.591Z,16.60
2023-03-06T20:01:38.084Z,16.98
2023-03-06T20:04:05.927Z,21.30
2023-03-06T20:06:36.642Z,21.52
2023-03-06T20:09:05.802Z,25.30
2023-03-06T20:11:33.217Z,29.05
2023-03-06T20:14:01.908Z,27.27
2023-03-06T20:16:29.576Z,34.40
2023-03-06T20:18:58.842Z,25.63
2023-03-06T20:21:26.795Z,26.40
2023-03-06T20:23:54.912Z,28.45
2023-03-06T20:26:22.134Z,29.73
2023-03-06T20:28:49.335Z,36.53
2023-03-06T20:31:17.863Z,30.58
2023-03-06T20:33:45.649Z,31.90
2023-03-06T20:36:16.780Z,28.08
2023-03-06T20:38:44.183Z,34.38
2023-03-06T20:41:15.434Z,35.85
2023-03-06T20:43:42.760Z,38.80
2023-03-06T20:46:11.050Z,35.08
2023-03-06T20:48:38.921Z,38.28
2023-03-06T20:51:11.280Z,35.53
2023-03-06T20:53:38.431Z,38.20
2023-03-06T20:56:06.593Z,44.00
2023-03-06T20:58:33.799Z,41.40
2023-03-06T21:01:02.384Z,42.03
2023-03-06T21:03:29.776Z,43.67
2023-03-06T21:05:57.210Z,44.85
2023-03-06T21:08:24.394Z,49.40
2023-03-06T21:10:51.769Z,42.75
2023-03-06T21:13:19.023Z,43.58
2023-03-06T21:15:47.564Z,49.53
2023-03-06T21:18:15.019Z,44.92
2023-03-06T21:20:42.596Z,46.83
2023-03-06T21:23:09.851Z,57.90
2023-03-06T21:25:37.217Z,58.47
2023-03-06T21:28:04.528Z,49.63
2023-03-06T21:30:31.797Z,55.83
2023-03-06T21:32:58.972Z,51.85
2023-03-06T21:35:26.328Z,45.67
2023-03-06T21:37:54.004Z,43.60
2023-03-06T21:40:21.292Z,47.67
2023-03-06T21:42:48.512Z,45.78
2023-03-06T21:45:15.718Z,57.78
2023-03-06T21:47:42.931Z,48.55
2023-03-06T21:50:10.861Z,52.80
2023-03-06T21:52:38.075Z,46.25
2023-03-06T21:55:05.576Z,56.53
2023-03-06T21:57:32.762Z,53.13
2023-03-06T21:59:59.954Z,48.08
2023-03-06T22:02:27.167Z,49.65
2023-03-06T22:04:54.442Z,51.28
2023-03-06T22:07:22.867Z,57.92
2023-03-06T22:09:53.704Z,47.05
2023-03-06T22:12:21.261Z,49.67
2023-03-06T22:14:48.488Z,53.38
2023-03-06T22:17:15.638Z,47.83
2023-03-06T22:19:42.880Z,55.45
2023-03-06T22:22:10.829Z,49.20
2023-03-06T22:24:38.037Z,45.92
2023-03-06T22:27:05.391Z,44.47
2023-03-06T22:29:32.617Z,45.75
2023-03-06T22:31:59.836Z,41.58
2023-03-06T22:34:29.813Z,43.13
2023-03-06T22:36:57.104Z,41.60
2023-03-06T22:39:24.421Z,32.47
2023-03-06T22:41:51.627Z,39.33
2023-03-06T22:44:19.647Z,42.10
2023-03-06T22:46:46.853Z,41.08
2023-03-06T22:49:16.805Z,43.47
2023-03-06T22:51:44.547Z,34.20
2023-03-06T22:54:12.003Z,40.05
2023-03-06T22:56:39.399Z,35.30
2023-03-06T22:59:06.594Z,38.45
2023-03-06T23:01:34.612Z,35.90
2023-03-06T23:04:03.000Z,35.17
2023-03-06T23:06:31.882Z,33.60
2023-03-06T23:09:01.330Z,31.20
2023-03-06T23:11:29.281Z,33.15
2023-03-06T23:13:57.344Z,31.05
2023-03-06T23:16:24.570Z,35.67
2023-03-06T23:18:52.954Z,30.55
2023-03-06T23:21:21.777Z,30.90
2023-03-06T23:23:49.874Z,29.48
2023-03-06T23:26:17.430Z,30.38
2023-03-06T23:28:44.721Z,35.00
2023-03-06T23:31:13.325Z,32.05
2023-03-06T23:33:40.591Z,28.45
2023-03-06T23:36:09.020Z,34.33
2023-03-06T23:38:36.260Z,32.20
2023-03-06T23:41:04.370Z,32.28
2023-03-06T23:43:32.140Z,31.58
2023-03-06T23:45:59.773Z,35.75
2023-03-06T23:48:27.281Z,30.25
2023-03-06T23:50:54.468Z,32.35
2023-03-06T23:53:21.748Z,36.15
2023-03-06T23:55:50.188Z,36.90
2023-03-06T23:58:18.260Z,35.50
